Terminal Aerodrome Forecast
Issued by NWS

Home | Current Version | Previous Version | Text Only | Print | Product List | Glossary On
Versions: 1 2 3 4 5 6 7 8 9 10 11 12 13 14 15 16 17 18 19 20
000
FTUS41 KGYX 271720
TAFLEB
TAF
KLEB 271720Z 2718/2818 34005KT P6SM FEW050 SCT250
     FM280700 00000KT 1/4SM FG VV001
     FM281400 19004KT P6SM SCT100 BKN250=

USA.gov is the U.S. government's official web portal to all federal, state and local government web resources and services.